Terminal Aerodrome Forecast
Issued by NWS Shreveport, LA

Home | Current Version | Previous Version | Text Only | Print | Product List | Glossary On
Versions: 1 2 3 4 5 6 7 8 9 10 11 12
684
FTUS44 KSHV 230520
TAFTYR
TAF
KTYR 230520Z 2306/2406 18006KT P6SM FEW250
     FM231500 23005KT P6SM FEW040 SCT250
     FM232100 19008KT P6SM BKN060 BKN250
     FM240200 16005KT P6SM SCT250=

USA.gov is the U.S. government's official web portal to all federal, state and local government web resources and services.